Weather at Northwest Arkansas Regional Airport

Public forecast

Using degrees Fahrenheit for public forecast. Weather courtesy of forecast.io.

Current aviation weather report (METAR) for Northwest Arkansas Regional Airport

Retrieved 2021/04/21 23:53 UTC (55 minutes ago):

KXNA 212353Z 30006KT 10SM CLR 11/M03 A3018 RMK AO2 SLP224 T01111033 10133 20111 56018

Aviation forecast (TAF) for Northwest Arkansas Regional Airport

Retrieved 2021-04-22 00:24 UTC (24 minutes ago):

TAF KXNA 212322Z 2200/2224 32005KT P6SM SCT060 BKN250 FM221800 16007KT P6SM VCSH SCT060 BKN120